^^
Saratoga-Weather Station Historical Data
Daily Summary for June 28, 2022 Units:  Both    English   Metric
Daily Weekly Monthly Yearly Custom
  High: Low: Average:
Temperature: 81.7 °F /  27.6 °C 55 °F /  12.8 °C 68.4 °F /  20.2 °C
Dew Point: 59.9 °F /  15.5 °C 52 °F /  11.1 °C 55.6 °F /  13.1 °C
Humidity: 96% 38% 68%
Wind Speed: 6.9mph /  11.1km/h - 1.2mph /  1.9km/h
Wind Gust: 11mph /  17.7km/h - -
Wind- - ESE
Pressure: 30.2 in /  1021.3 hPa 30 in /  1014.6 hPa -
Precipitation: 0 in /  0.0 mm    
Historical Graphs
 
 
Tabular Data for June 28, 2022
Time Temperature Dew Point Pressure Wind Wind Speed Wind Gust Humidity Rainfall Rate (Hourly) solar
00:00 61.3 °F /  16.3 °C 57.4 °F /  14.1 °C 30.1in /  1020.3hPa Calm   1mph /  1.6km/h 87% 0in /  0.0mm 0 W/m2
00:05 61.3 °F /  16.3 °C 57.2 °F /  14 °C 30.1in /  1020.3hPa Calm     86% 0in /  0.0mm 0 W/m2
00:10 61.2 °F /  16.2 °C 57 °F /  13.9 °C 30.1in /  1020.3hPa Calm     86% 0in /  0.0mm 0 W/m2
00:15 61 °F /  16.1 °C 56.8 °F /  13.8 °C 30.1in /  1020.7hPa Calm     86% 0in /  0.0mm 0 W/m2
00:20 60.8 °F /  16 °C 56.7 °F /  13.7 °C 30.1in /  1020.7hPa Calm   1mph /  1.6km/h 86% 0in /  0.0mm 0 W/m2
00:25 60.4 °F /  15.8 °C 56.3 °F /  13.5 °C 30.1in /  1020.7hPa SSW 0.9mph /  1.4km/h 1mph /  1.6km/h 86% 0in /  0.0mm 0 W/m2
00:30 60.3 °F /  15.7 °C 56.3 °F /  13.5 °C 30.1in /  1020.7hPa Calm     87% 0in /  0.0mm 0 W/m2
00:35 60.1 °F /  15.6 °C 56.5 °F /  13.6 °C 30.1in /  1020.7hPa Calm   2mph /  3.2km/h 88% 0in /  0.0mm 0 W/m2
00:40 59.7 °F /  15.4 °C 56.1 °F /  13.4 °C 30.1in /  1020.7hPa Calm   1mph /  1.6km/h 88% 0in /  0.0mm 0 W/m2
00:45 59.7 °F /  15.4 °C 56.1 °F /  13.4 °C 30.1in /  1020.7hPa Calm     88% 0in /  0.0mm 0 W/m2
00:50 59.9 °F /  15.5 °C 56.7 °F /  13.7 °C 30.1in /  1020.7hPa Calm   1mph /  1.6km/h 89% 0in /  0.0mm 0 W/m2
00:55 60.1 °F /  15.6 °C 56.8 °F /  13.8 °C 30.1in /  1020.7hPa Calm     89% 0in /  0.0mm 0 W/m2
01:00 60.1 °F /  15.6 °C 56.8 °F /  13.8 °C 30.1in /  1020.7hPa Calm     89% 0in /  0.0mm 0 W/m2
01:06 60.1 °F /  15.6 °C 56.8 °F /  13.8 °C 30.1in /  1020.7hPa Calm     89% 0in /  0.0mm 0 W/m2
01:11 60.1 °F /  15.6 °C 56.8 °F /  13.8 °C 30.1in /  1020.7hPa Calm     89% 0in /  0.0mm 0 W/m2
01:16 60.1 °F /  15.6 °C 56.8 °F /  13.8 °C 30.1in /  1020.7hPa Calm     89% 0in /  0.0mm 0 W/m2
01:21 60.1 °F /  15.6 °C 56.8 °F /  13.8 °C 30.1in /  1020.7hPa Calm     89% 0in /  0.0mm 0 W/m2
01:26 59.9 °F /  15.5 °C 56.7 °F /  13.7 °C 30.1in /  1020.7hPa Calm     89% 0in /  0.0mm 0 W/m2
01:31 59.9 °F /  15.5 °C 56.7 °F /  13.7 °C 30.1in /  1020.7hPa Calm     89% 0in /  0.0mm 0 W/m2
01:36 59.9 °F /  15.5 °C 56.7 °F /  13.7 °C 30.1in /  1020.7hPa Calm     89% 0in /  0.0mm 0 W/m2
01:41 59.9 °F /  15.5 °C 56.7 °F /  13.7 °C 30.1in /  1020.7hPa Calm     89% 0in /  0.0mm 0 W/m2
01:46 59.7 °F /  15.4 °C 56.5 °F /  13.6 °C 30.1in /  1020.7hPa Calm     89% 0in /  0.0mm 0 W/m2
01:51 59.7 °F /  15.4 °C 56.5 °F /  13.6 °C 30.1in /  1020.7hPa Calm     89% 0in /  0.0mm 0 W/m2
01:56 59.7 °F /  15.4 °C 56.5 °F /  13.6 °C 30.1in /  1020.7hPa WSW 6.9mph /  11.1km/h 7mph /  11.3km/h 89% 0in /  0.0mm 0 W/m2
02:01 59.9 °F /  15.5 °C 57 °F /  13.9 °C 30.1in /  1020.7hPa West 0.9mph /  1.4km/h 3mph /  4.8km/h 90% 0in /  0.0mm 0 W/m2
02:06 60.1 °F /  15.6 °C 57.2 °F /  14 °C 30.1in /  1020.7hPa Calm   1mph /  1.6km/h 90% 0in /  0.0mm 0 W/m2
02:11 60.3 °F /  15.7 °C 57.4 °F /  14.1 °C 30.1in /  1020.7hPa ESE 2mph /  3.2km/h 3mph /  4.8km/h 90% 0in /  0.0mm 0 W/m2
02:16 60.3 °F /  15.7 °C 57.4 °F /  14.1 °C 30.1in /  1020.7hPa SW 0.9mph /  1.4km/h 1mph /  1.6km/h 90% 0in /  0.0mm 0 W/m2
02:21 60.3 °F /  15.7 °C 57.6 °F /  14.2 °C 30.1in /  1020.3hPa Calm     91% 0in /  0.0mm 0 W/m2
02:26 60.3 °F /  15.7 °C 57.6 °F /  14.2 °C 30.1in /  1020.3hPa Calm     91% 0in /  0.0mm 0 W/m2
02:31 60.3 °F /  15.7 °C 57.6 °F /  14.2 °C 30.1in /  1020.3hPa Calm     91% 0in /  0.0mm 0 W/m2
02:36 60.3 °F /  15.7 °C 57.6 °F /  14.2 °C 30.1in /  1020.3hPa Calm     91% 0in /  0.0mm 0 W/m2
02:41 60.3 °F /  15.7 °C 57.6 °F /  14.2 °C 30.1in /  1020.3hPa Calm     91% 0in /  0.0mm 0 W/m2
02:46 60.1 °F /  15.6 °C 57.4 °F /  14.1 °C 30.1in /  1020.3hPa Calm     91% 0in /  0.0mm 0 W/m2
02:51 59.9 °F /  15.5 °C 57.2 °F /  14 °C 30.1in /  1020.3hPa Calm     91% 0in /  0.0mm 0 W/m2
02:56 59.7 °F /  15.4 °C 57 °F /  13.9 °C 30.1in /  1020.3hPa Calm     91% 0in /  0.0mm 0 W/m2
03:01 59.5 °F /  15.3 °C 56.8 °F /  13.8 °C 30.1in /  1020.3hPa Calm     91% 0in /  0.0mm 0 W/m2
03:06 59.4 °F /  15.2 °C 56.7 °F /  13.7 °C 30.1in /  1020.3hPa Calm     91% 0in /  0.0mm 0 W/m2
03:11 59.2 °F /  15.1 °C 56.5 °F /  13.6 °C 30.1in /  1020.3hPa Calm     91% 0in /  0.0mm 0 W/m2
03:16 58.8 °F /  14.9 °C 56.1 °F /  13.4 °C 30.1in /  1020.3hPa Calm     91% 0in /  0.0mm 0 W/m2
03:21 58.6 °F /  14.8 °C 55.9 °F /  13.3 °C 30.1in /  1020.3hPa Calm     91% 0in /  0.0mm 0 W/m2
03:26 58.5 °F /  14.7 °C 55.8 °F /  13.2 °C 30.1in /  1020.3hPa Calm     91% 0in /  0.0mm 0 W/m2
03:31 58.3 °F /  14.6 °C 55.6 °F /  13.1 °C 30.1in /  1020.3hPa Calm     91% 0in /  0.0mm 0 W/m2
03:36 58.1 °F /  14.5 °C 55.8 °F /  13.2 °C 30.1in /  1020.3hPa Calm     92% 0in /  0.0mm 0 W/m2
03:41 57.7 °F /  14.3 °C 55.2 °F /  12.9 °C 30.1in /  1020.3hPa Calm     91% 0in /  0.0mm 0 W/m2
03:46 57.7 °F /  14.3 °C 55.4 °F /  13 °C 30.1in /  1020.0hPa Calm     92% 0in /  0.0mm 0 W/m2
03:51 57.6 °F /  14.2 °C 55.2 °F /  12.9 °C 30.1in /  1020.0hPa Calm     92% 0in /  0.0mm 0 W/m2
03:56 57.4 °F /  14.1 °C 55 °F /  12.8 °C 30.1in /  1020.3hPa Calm     92% 0in /  0.0mm 0 W/m2
04:01 57 °F /  13.9 °C 54.7 °F /  12.6 °C 30.1in /  1020.3hPa Calm     92% 0in /  0.0mm 0 W/m2
04:06 56.8 °F /  13.8 °C 54.5 °F /  12.5 °C 30.1in /  1020.3hPa Calm     92% 0in /  0.0mm 0 W/m2
04:11 56.8 °F /  13.8 °C 54.5 °F /  12.5 °C 30.1in /  1020.3hPa Calm     92% 0in /  0.0mm 0 W/m2
04:16 56.7 °F /  13.7 °C 54.3 °F /  12.4 °C 30.1in /  1020.3hPa Calm     92% 0in /  0.0mm 0 W/m2
04:21 56.5 °F /  13.6 °C 54.5 °F /  12.5 °C 30.1in /  1020.3hPa Calm     93% 0in /  0.0mm 0 W/m2
04:26 56.5 °F /  13.6 °C 54.5 °F /  12.5 °C 30.1in /  1020.3hPa Calm     93% 0in /  0.0mm 0 W/m2
04:31 56.1 °F /  13.4 °C 54.1 °F /  12.3 °C 30.1in /  1020.3hPa Calm     93% 0in /  0.0mm 0 W/m2
04:36 56.1 °F /  13.4 °C 54.1 °F /  12.3 °C 30.1in /  1020.3hPa Calm     93% 0in /  0.0mm 0 W/m2
04:41 55.9 °F /  13.3 °C 54 °F /  12.2 °C 30.1in /  1020.3hPa Calm     93% 0in /  0.0mm 0 W/m2
04:46 55.9 °F /  13.3 °C 54 °F /  12.2 °C 30.1in /  1020.3hPa Calm     93% 0in /  0.0mm 0 W/m2
04:51 55.8 °F /  13.2 °C 53.8 °F /  12.1 °C 30.1in /  1020.3hPa Calm     93% 0in /  0.0mm 0 W/m2
04:56 55.8 °F /  13.2 °C 53.8 °F /  12.1 °C 30.1in /  1020.3hPa Calm     93% 0in /  0.0mm 0 W/m2
05:01 55.6 °F /  13.1 °C 53.6 °F /  12 °C 30.1in /  1020.3hPa Calm     93% 0in /  0.0mm 0 W/m2
05:06 55.6 °F /  13.1 °C 54 °F /  12.2 °C 30.1in /  1020.3hPa Calm     94% 0in /  0.0mm 0 W/m2
05:11 55.4 °F /  13 °C 53.8 °F /  12.1 °C 30.1in /  1020.7hPa Calm     94% 0in /  0.0mm 0 W/m2
05:16 55.4 °F /  13 °C 53.8 °F /  12.1 °C 30.1in /  1020.7hPa Calm     94% 0in /  0.0mm 0 W/m2
05:21 55.2 °F /  12.9 °C 53.6 °F /  12 °C 30.1in /  1020.7hPa Calm     94% 0in /  0.0mm 0 W/m2
05:26 55.2 °F /  12.9 °C 53.6 °F /  12 °C 30.1in /  1020.7hPa Calm     94% 0in /  0.0mm 0 W/m2
05:31 55.2 °F /  12.9 °C 53.6 °F /  12 °C 30.1in /  1020.7hPa Calm     94% 0in /  0.0mm 0 W/m2
05:36 55.2 °F /  12.9 °C 53.6 °F /  12 °C 30.1in /  1020.7hPa Calm     94% 0in /  0.0mm 5 W/m2
05:41 55.2 °F /  12.9 °C 53.6 °F /  12 °C 30.1in /  1020.7hPa Calm     94% 0in /  0.0mm 7 W/m2
05:46 55.2 °F /  12.9 °C 53.6 °F /  12 °C 30.1in /  1020.7hPa Calm     94% 0in /  0.0mm 7 W/m2
05:51 55.2 °F /  12.9 °C 53.6 °F /  12 °C 30.1in /  1020.7hPa Calm     94% 0in /  0.0mm 11 W/m2
05:56 55.2 °F /  12.9 °C 53.6 °F /  12 °C 30.1in /  1020.7hPa Calm     94% 0in /  0.0mm 12 W/m2
06:01 55.2 °F /  12.9 °C 53.8 °F /  12.1 °C 30.1in /  1020.7hPa Calm     95% 0in /  0.0mm 14 W/m2
06:06 55 °F /  12.8 °C 53.6 °F /  12 °C 30.1in /  1020.7hPa Calm     95% 0in /  0.0mm 18 W/m2
06:11 55 °F /  12.8 °C 53.6 °F /  12 °C 30.2in /  1021.0hPa Calm     95% 0in /  0.0mm 18 W/m2
06:16 55 °F /  12.8 °C 53.6 °F /  12 °C 30.2in /  1021.0hPa Calm     95% 0in /  0.0mm 23 W/m2
06:21 55.2 °F /  12.9 °C 53.8 °F /  12.1 °C 30.2in /  1021.0hPa Calm     95% 0in /  0.0mm 25 W/m2
06:26 55.2 °F /  12.9 °C 53.8 °F /  12.1 °C 30.2in /  1021.0hPa Calm     95% 0in /  0.0mm 26 W/m2
06:31 55.4 °F /  13 °C 54 °F /  12.2 °C 30.2in /  1021.0hPa Calm     95% 0in /  0.0mm 28 W/m2
06:36 55.4 °F /  13 °C 54 °F /  12.2 °C 30.2in /  1021.0hPa Calm     95% 0in /  0.0mm 30 W/m2
06:41 55.6 °F /  13.1 °C 54.1 °F /  12.3 °C 30.2in /  1021.0hPa Calm     95% 0in /  0.0mm 32 W/m2
06:46 55.6 °F /  13.1 °C 54.1 °F /  12.3 °C 30.2in /  1021.0hPa Calm     95% 0in /  0.0mm 32 W/m2
06:51 55.8 °F /  13.2 °C 54.3 °F /  12.4 °C 30.2in /  1021.0hPa Calm     95% 0in /  0.0mm 33 W/m2
06:56 55.9 °F /  13.3 °C 54.9 °F /  12.7 °C 30.2in /  1021.0hPa Calm     96% 0in /  0.0mm 33 W/m2
07:01 56.1 °F /  13.4 °C 55 °F /  12.8 °C 30.2in /  1021.0hPa Calm     96% 0in /  0.0mm 37 W/m2
07:06 56.5 °F /  13.6 °C 55.4 °F /  13 °C 30.2in /  1021.0hPa Calm     96% 0in /  0.0mm 39 W/m2
07:11 56.7 °F /  13.7 °C 55.6 °F /  13.1 °C 30.2in /  1021.0hPa Calm     96% 0in /  0.0mm 40 W/m2
07:16 56.8 °F /  13.8 °C 55.8 °F /  13.2 °C 30.2in /  1021.3hPa NNE 2mph /  3.2km/h 3mph /  4.8km/h 96% 0in /  0.0mm 46 W/m2
07:21 57 °F /  13.9 °C 55.9 °F /  13.3 °C 30.2in /  1021.3hPa East 2mph /  3.2km/h 2mph /  3.2km/h 96% 0in /  0.0mm 121 W/m2
07:26 57.4 °F /  14.1 °C 56.3 °F /  13.5 °C 30.2in /  1021.3hPa ENE 2mph /  3.2km/h 3mph /  4.8km/h 96% 0in /  0.0mm 149 W/m2
07:31 57.7 °F /  14.3 °C 56.7 °F /  13.7 °C 30.2in /  1021.3hPa Calm   2mph /  3.2km/h 96% 0in /  0.0mm 134 W/m2
07:36 58.3 °F /  14.6 °C 57.2 °F /  14 °C 30.2in /  1021.3hPa East 0.9mph /  1.4km/h 3mph /  4.8km/h 96% 0in /  0.0mm 142 W/m2
07:41 58.6 °F /  14.8 °C 57.6 °F /  14.2 °C 30.2in /  1021.3hPa East 0.9mph /  1.4km/h 2mph /  3.2km/h 96% 0in /  0.0mm 90 W/m2
07:46 58.6 °F /  14.8 °C 57.2 °F /  14 °C 30.2in /  1021.3hPa East 2.9mph /  4.7km/h 3mph /  4.8km/h 95% 0in /  0.0mm 58 W/m2
07:51 58.6 °F /  14.8 °C 56.8 °F /  13.8 °C 30.2in /  1021.3hPa Calm   1mph /  1.6km/h 94% 0in /  0.0mm 114 W/m2
07:56 58.8 °F /  14.9 °C 57 °F /  13.9 °C 30.2in /  1021.0hPa NE 0.9mph /  1.4km/h 2mph /  3.2km/h 94% 0in /  0.0mm 69 W/m2
08:01 59.2 °F /  15.1 °C 57.4 °F /  14.1 °C 30.2in /  1021.0hPa NE 0.9mph /  1.4km/h 1mph /  1.6km/h 94% 0in /  0.0mm 253 W/m2
08:06 59.5 °F /  15.3 °C 57.6 °F /  14.2 °C 30.2in /  1021.0hPa ENE 2mph /  3.2km/h 2mph /  3.2km/h 93% 0in /  0.0mm 274 W/m2
08:11 60.4 °F /  15.8 °C 58.5 °F /  14.7 °C 30.2in /  1021.0hPa East 0.9mph /  1.4km/h 2mph /  3.2km/h 93% 0in /  0.0mm 297 W/m2
08:16 60.6 °F /  15.9 °C 57.7 °F /  14.3 °C 30.2in /  1021.0hPa East 0.9mph /  1.4km/h 3mph /  4.8km/h 90% 0in /  0.0mm 295 W/m2
08:21 61.2 °F /  16.2 °C 58.3 °F /  14.6 °C 30.2in /  1021.0hPa NNW 0.9mph /  1.4km/h 4mph /  6.4km/h 90% 0in /  0.0mm 179 W/m2
08:26 61.5 °F /  16.4 °C 58.3 °F /  14.6 °C 30.2in /  1021.0hPa Calm   2mph /  3.2km/h 89% 0in /  0.0mm 109 W/m2
08:31 62.1 °F /  16.7 °C 58.1 °F /  14.5 °C 30.2in /  1021.0hPa NE 2mph /  3.2km/h 4mph /  6.4km/h 87% 0in /  0.0mm 114 W/m2
08:36 62.2 °F /  16.8 °C 58.3 °F /  14.6 °C 30.2in /  1021.0hPa ENE 2mph /  3.2km/h 2mph /  3.2km/h 87% 0in /  0.0mm 79 W/m2
08:41 62.6 °F /  17 °C 58.3 °F /  14.6 °C 30.2in /  1021.0hPa Calm     86% 0in /  0.0mm 93 W/m2
08:46 62.8 °F /  17.1 °C 57.9 °F /  14.4 °C 30.2in /  1021.0hPa NE 0.9mph /  1.4km/h 4mph /  6.4km/h 84% 0in /  0.0mm 116 W/m2
08:51 62.6 °F /  17 °C 57.7 °F /  14.3 °C 30.2in /  1021.0hPa ENE 0.9mph /  1.4km/h 4mph /  6.4km/h 84% 0in /  0.0mm 127 W/m2
08:56 62.6 °F /  17 °C 57.7 °F /  14.3 °C 30.2in /  1021.0hPa ENE 0.9mph /  1.4km/h 4mph /  6.4km/h 84% 0in /  0.0mm 125 W/m2
09:01 62.8 °F /  17.1 °C 57.9 °F /  14.4 °C 30.2in /  1021.0hPa NNW 0.9mph /  1.4km/h 3mph /  4.8km/h 84% 0in /  0.0mm 74 W/m2
09:06 63.1 °F /  17.3 °C 58.3 °F /  14.6 °C 30.2in /  1021.0hPa ESE 2mph /  3.2km/h 3mph /  4.8km/h 84% 0in /  0.0mm 72 W/m2
09:11 63.5 °F /  17.5 °C 58.3 °F /  14.6 °C 30.2in /  1021.0hPa NE 2.9mph /  4.7km/h 3mph /  4.8km/h 83% 0in /  0.0mm 130 W/m2
09:16 63.9 °F /  17.7 °C 59 °F /  15 °C 30.2in /  1021.0hPa NNE 2mph /  3.2km/h 4mph /  6.4km/h 84% 0in /  0.0mm 169 W/m2
09:21 64 °F /  17.8 °C 58.5 °F /  14.7 °C 30.2in /  1021.0hPa NE 4mph /  6.4km/h 6mph /  9.7km/h 82% 0in /  0.0mm 95 W/m2
09:26 64.6 °F /  18.1 °C 59.4 °F /  15.2 °C 30.2in /  1021.0hPa East 0.9mph /  1.4km/h 3mph /  4.8km/h 83% 0in /  0.0mm 62 W/m2
09:31 64.9 °F /  18.3 °C 59 °F /  15 °C 30.2in /  1021.0hPa NE 2.9mph /  4.7km/h 4mph /  6.4km/h 81% 0in /  0.0mm 56 W/m2
09:36 65.7 °F /  18.7 °C 59.7 °F /  15.4 °C 30.2in /  1021.0hPa East 2mph /  3.2km/h 6mph /  9.7km/h 81% 0in /  0.0mm 58 W/m2
09:41 66.2 °F /  19 °C 59.9 °F /  15.5 °C 30.1in /  1020.7hPa Calm   4mph /  6.4km/h 80% 0in /  0.0mm 58 W/m2
09:46 66.7 °F /  19.3 °C 59.7 °F /  15.4 °C 30.1in /  1020.7hPa ESE 0.9mph /  1.4km/h 6mph /  9.7km/h 78% 0in /  0.0mm 58 W/m2
09:51 67.3 °F /  19.6 °C 59.9 °F /  15.5 °C 30.1in /  1020.7hPa East 2mph /  3.2km/h 4mph /  6.4km/h 77% 0in /  0.0mm 114 W/m2
09:56 67.5 °F /  19.7 °C 59.5 °F /  15.3 °C 30.1in /  1020.7hPa ENE 4mph /  6.4km/h 4mph /  6.4km/h 76% 0in /  0.0mm 308 W/m2
10:01 67.5 °F /  19.7 °C 59.5 °F /  15.3 °C 30.1in /  1020.7hPa ENE 2mph /  3.2km/h 3mph /  4.8km/h 76% 0in /  0.0mm 555 W/m2
10:06 67.6 °F /  19.8 °C 59.4 °F /  15.2 °C 30.1in /  1020.7hPa NNE 2mph /  3.2km/h 4mph /  6.4km/h 75% 0in /  0.0mm 594 W/m2
10:11 67.6 °F /  19.8 °C 59 °F /  15 °C 30.1in /  1020.3hPa Calm   3mph /  4.8km/h 74% 0in /  0.0mm 547 W/m2
10:16 67.8 °F /  19.9 °C 58.8 °F /  14.9 °C 30.1in /  1020.3hPa North 2mph /  3.2km/h 8mph /  12.9km/h 73% 0in /  0.0mm 58 W/m2
10:21 68 °F /  20 °C 59 °F /  15 °C 30.1in /  1020.3hPa NNW 2mph /  3.2km/h 3mph /  4.8km/h 73% 0in /  0.0mm 130 W/m2
10:26 68.2 °F /  20.1 °C 59.2 °F /  15.1 °C 30.1in /  1020.3hPa NNW 0.9mph /  1.4km/h 8mph /  12.9km/h 73% 0in /  0.0mm 624 W/m2
10:31 68.5 °F /  20.3 °C 58.3 °F /  14.6 °C 30.1in /  1020.3hPa ENE 0.9mph /  1.4km/h 8mph /  12.9km/h 70% 0in /  0.0mm 652 W/m2
10:36 68.7 °F /  20.4 °C 59.4 °F /  15.2 °C 30.1in /  1020.3hPa ESE 2mph /  3.2km/h 4mph /  6.4km/h 72% 0in /  0.0mm 666 W/m2
10:41 69.1 °F /  20.6 °C 58.8 °F /  14.9 °C 30.1in /  1020.0hPa NE 2mph /  3.2km/h 3mph /  4.8km/h 70% 0in /  0.0mm 687 W/m2
10:46 69.3 °F /  20.7 °C 58.6 °F /  14.8 °C 30.1in /  1020.3hPa NE 2.9mph /  4.7km/h 5mph /  8km/h 69% 0in /  0.0mm 731 W/m2
10:51 69.4 °F /  20.8 °C 57.9 °F /  14.4 °C 30.1in /  1020.0hPa Calm   2mph /  3.2km/h 67% 0in /  0.0mm 158 W/m2
10:56 69.6 °F /  20.9 °C 57.7 °F /  14.3 °C 30.1in /  1020.0hPa ESE 0.9mph /  1.4km/h 8mph /  12.9km/h 66% 0in /  0.0mm 740 W/m2
11:01 69.6 °F /  20.9 °C 57.7 °F /  14.3 °C 30.1in /  1020.0hPa ESE 2.9mph /  4.7km/h 6mph /  9.7km/h 66% 0in /  0.0mm 798 W/m2
11:06 70.3 °F /  21.3 °C 58.8 °F /  14.9 °C 30.1in /  1020.0hPa ENE 4.9mph /  7.9km/h 8mph /  12.9km/h 67% 0in /  0.0mm 793 W/m2
11:11 70.5 °F /  21.4 °C 57.7 °F /  14.3 °C 30.1in /  1020.0hPa South 0.9mph /  1.4km/h 7mph /  11.3km/h 64% 0in /  0.0mm 770 W/m2
11:16 70.5 °F /  21.4 °C 57.7 °F /  14.3 °C 30.1in /  1020.0hPa East 2mph /  3.2km/h 2mph /  3.2km/h 64% 0in /  0.0mm 754 W/m2
11:21 70.5 °F /  21.4 °C 55.9 °F /  13.3 °C 30.1in /  1019.6hPa NE 2mph /  3.2km/h 7mph /  11.3km/h 60% 0in /  0.0mm 167 W/m2
11:26 70.7 °F /  21.5 °C 56.1 °F /  13.4 °C 30.1in /  1019.6hPa East 2mph /  3.2km/h 6mph /  9.7km/h 60% 0in /  0.0mm 789 W/m2
11:31 71.2 °F /  21.8 °C 55.8 °F /  13.2 °C 30.1in /  1019.6hPa ESE 4mph /  6.4km/h 8mph /  12.9km/h 58% 0in /  0.0mm 204 W/m2
11:36 71.4 °F /  21.9 °C 55.9 °F /  13.3 °C 30.1in /  1019.6hPa NNE 0.9mph /  1.4km/h 2mph /  3.2km/h 58% 0in /  0.0mm 858 W/m2
11:41 71.8 °F /  22.1 °C 54.7 °F /  12.6 °C 30.1in /  1019.6hPa East 0.9mph /  1.4km/h 4mph /  6.4km/h 55% 0in /  0.0mm 837 W/m2
11:46 71.6 °F /  22 °C 54.5 °F /  12.5 °C 30.1in /  1019.6hPa NE 0.9mph /  1.4km/h 6mph /  9.7km/h 55% 0in /  0.0mm 916 W/m2
11:51 72 °F /  22.2 °C 54.9 °F /  12.7 °C 30.1in /  1019.3hPa ESE 4mph /  6.4km/h 6mph /  9.7km/h 55% 0in /  0.0mm 983 W/m2
11:56 72.3 °F /  22.4 °C 54.7 °F /  12.6 °C 30.1in /  1019.3hPa ESE 2.9mph /  4.7km/h 4mph /  6.4km/h 54% 0in /  0.0mm 914 W/m2
12:01 72.7 °F /  22.6 °C 54.5 °F /  12.5 °C 30.1in /  1019.3hPa NE 4.9mph /  7.9km/h 7mph /  11.3km/h 53% 0in /  0.0mm 209 W/m2
12:06 73 °F /  22.8 °C 54.3 °F /  12.4 °C 30.1in /  1019.3hPa East 2mph /  3.2km/h 3mph /  4.8km/h 52% 0in /  0.0mm 925 W/m2
12:11 73.2 °F /  22.9 °C 54.5 °F /  12.5 °C 30.1in /  1019.3hPa SE 6.9mph /  11.1km/h 7mph /  11.3km/h 52% 0in /  0.0mm 893 W/m2
12:16 73.2 °F /  22.9 °C 53.4 °F /  11.9 °C 30.1in /  1019.0hPa NNW 2.9mph /  4.7km/h 4mph /  6.4km/h 50% 0in /  0.0mm 884 W/m2
12:21 73.4 °F /  23 °C 53.1 °F /  11.7 °C 30.1in /  1019.0hPa Calm   4mph /  6.4km/h 49% 0in /  0.0mm 881 W/m2
12:26 73.6 °F /  23.1 °C 53.8 °F /  12.1 °C 30.1in /  1019.0hPa WSW 4mph /  6.4km/h 4mph /  6.4km/h 50% 0in /  0.0mm 907 W/m2
12:31 73.2 °F /  22.9 °C 53.4 °F /  11.9 °C 30.1in /  1019.0hPa North 0.9mph /  1.4km/h 8mph /  12.9km/h 50% 0in /  0.0mm 918 W/m2
12:36 73.6 °F /  23.1 °C 54.3 °F /  12.4 °C 30.1in /  1019.0hPa ENE 2.9mph /  4.7km/h 6mph /  9.7km/h 51% 0in /  0.0mm 986 W/m2
12:41 73.8 °F /  23.2 °C 55 °F /  12.8 °C 30.1in /  1019.0hPa ENE 2.9mph /  4.7km/h 4mph /  6.4km/h 52% 0in /  0.0mm 940 W/m2
12:46 73.9 °F /  23.3 °C 53.6 °F /  12 °C 30.1in /  1019.0hPa ESE 2mph /  3.2km/h 4mph /  6.4km/h 49% 0in /  0.0mm 993 W/m2
12:51 74.1 °F /  23.4 °C 54.9 °F /  12.7 °C 30.1in /  1018.6hPa SE 2mph /  3.2km/h 3mph /  4.8km/h 51% 0in /  0.0mm 1005 W/m2
12:56 74.7 °F /  23.7 °C 55.4 °F /  13 °C 30.1in /  1019.0hPa NE 2.9mph /  4.7km/h 6mph /  9.7km/h 51% 0in /  0.0mm 951 W/m2
13:01 74.7 °F /  23.7 °C 54.3 °F /  12.4 °C 30.1in /  1018.6hPa North 2.9mph /  4.7km/h 5mph /  8km/h 49% 0in /  0.0mm 919 W/m2
13:06 74.1 °F /  23.4 °C 54.9 °F /  12.7 °C 30.1in /  1018.6hPa ESE 2mph /  3.2km/h 2mph /  3.2km/h 51% 0in /  0.0mm 200 W/m2
13:11 73.9 °F /  23.3 °C 53.6 °F /  12 °C 30.1in /  1018.6hPa ENE 4mph /  6.4km/h 10mph /  16.1km/h 49% 0in /  0.0mm 979 W/m2
13:16 73.9 °F /  23.3 °C 53.6 °F /  12 °C 30.1in /  1018.3hPa ENE 2.9mph /  4.7km/h 4mph /  6.4km/h 49% 0in /  0.0mm 914 W/m2
13:21 74.5 °F /  23.6 °C 55.8 °F /  13.2 °C 30.1in /  1018.3hPa ESE 2mph /  3.2km/h 10mph /  16.1km/h 52% 0in /  0.0mm 921 W/m2
13:26 74.8 °F /  23.8 °C 55 °F /  12.8 °C 30.1in /  1018.3hPa ENE 0.9mph /  1.4km/h 6mph /  9.7km/h 50% 0in /  0.0mm 953 W/m2
13:31 75.2 °F /  24 °C 54.1 °F /  12.3 °C 30.1in /  1018.3hPa NE 2.9mph /  4.7km/h 10mph /  16.1km/h 48% 0in /  0.0mm 930 W/m2
13:36 75.6 °F /  24.2 °C 54 °F /  12.2 °C 30.1in /  1018.0hPa ENE 2mph /  3.2km/h 6mph /  9.7km/h 47% 0in /  0.0mm 919 W/m2
13:41 75.6 °F /  24.2 °C 54.5 °F /  12.5 °C 30.1in /  1018.0hPa NE 0.9mph /  1.4km/h 7mph /  11.3km/h 48% 0in /  0.0mm 918 W/m2
13:46 75.7 °F /  24.3 °C 52.9 °F /  11.6 °C 30.1in /  1018.0hPa ENE 2mph /  3.2km/h 6mph /  9.7km/h 45% 0in /  0.0mm 928 W/m2
13:51 75.7 °F /  24.3 °C 54.1 °F /  12.3 °C 30.1in /  1018.0hPa ENE 2mph /  3.2km/h 6mph /  9.7km/h 47% 0in /  0.0mm 926 W/m2
13:56 75.9 °F /  24.4 °C 53.1 °F /  11.7 °C 30.1in /  1018.0hPa NE 0.9mph /  1.4km/h 6mph /  9.7km/h 45% 0in /  0.0mm 932 W/m2
14:01 75.9 °F /  24.4 °C 53.6 °F /  12 °C 30.1in /  1017.6hPa SSE 2mph /  3.2km/h 4mph /  6.4km/h 46% 0in /  0.0mm 932 W/m2
14:06 76.3 °F /  24.6 °C 55.2 °F /  12.9 °C 30.1in /  1018.0hPa NNE 0.9mph /  1.4km/h 4mph /  6.4km/h 48% 0in /  0.0mm 925 W/m2
14:11 76.5 °F /  24.7 °C 54.1 °F /  12.3 °C 30.1in /  1017.6hPa ENE 0.9mph /  1.4km/h 4mph /  6.4km/h 46% 0in /  0.0mm 928 W/m2
14:16 76.6 °F /  24.8 °C 54.3 °F /  12.4 °C 30.1in /  1017.6hPa East 2mph /  3.2km/h 7mph /  11.3km/h 46% 0in /  0.0mm 923 W/m2
14:21 76.6 °F /  24.8 °C 53.8 °F /  12.1 °C 30.1in /  1017.6hPa SE 2.9mph /  4.7km/h 4mph /  6.4km/h 45% 0in /  0.0mm 919 W/m2
14:27 76.5 °F /  24.7 °C 54.7 °F /  12.6 °C 30in /  1017.3hPa East 2.9mph /  4.7km/h 7mph /  11.3km/h 47% 0in /  0.0mm 916 W/m2
14:32 76.8 °F /  24.9 °C 53.2 °F /  11.8 °C 30in /  1017.3hPa NE 2mph /  3.2km/h 6mph /  9.7km/h 44% 0in /  0.0mm 919 W/m2
14:37 76.6 °F /  24.8 °C 54.9 °F /  12.7 °C 30in /  1017.3hPa ENE 2mph /  3.2km/h 4mph /  6.4km/h 47% 0in /  0.0mm 916 W/m2
14:42 76.6 °F /  24.8 °C 53.8 °F /  12.1 °C 30in /  1017.3hPa ESE 0.9mph /  1.4km/h 5mph /  8km/h 45% 0in /  0.0mm 918 W/m2
14:47 77.2 °F /  25.1 °C 52.9 °F /  11.6 °C 30in /  1017.3hPa SE 2.9mph /  4.7km/h 7mph /  11.3km/h 43% 0in /  0.0mm 914 W/m2
14:52 77.5 °F /  25.3 °C 54 °F /  12.2 °C 30in /  1016.9hPa NNW 2.9mph /  4.7km/h 5mph /  8km/h 44% 0in /  0.0mm 914 W/m2
14:57 77.5 °F /  25.3 °C 53.2 °F /  11.8 °C 30in /  1016.9hPa ESE 2mph /  3.2km/h 6mph /  9.7km/h 43% 0in /  0.0mm 905 W/m2
15:02 77.7 °F /  25.4 °C 54.7 °F /  12.6 °C 30in /  1017.3hPa SE 0.9mph /  1.4km/h 8mph /  12.9km/h 45% 0in /  0.0mm 902 W/m2
15:07 78.1 °F /  25.6 °C 53.8 °F /  12.1 °C 30in /  1016.9hPa ESE 2.9mph /  4.7km/h 11mph /  17.7km/h 43% 0in /  0.0mm 898 W/m2
15:12 78.3 °F /  25.7 °C 54.5 °F /  12.5 °C 30in /  1017.3hPa East 2mph /  3.2km/h 7mph /  11.3km/h 44% 0in /  0.0mm 889 W/m2
15:17 78.1 °F /  25.6 °C 55 °F /  12.8 °C 30in /  1016.9hPa ENE 2.9mph /  4.7km/h 11mph /  17.7km/h 45% 0in /  0.0mm 911 W/m2
15:22 78.1 °F /  25.6 °C 53.8 °F /  12.1 °C 30in /  1016.9hPa ESE 2mph /  3.2km/h 5mph /  8km/h 43% 0in /  0.0mm 895 W/m2
15:27 78.3 °F /  25.7 °C 54.5 °F /  12.5 °C 30in /  1016.9hPa SW 2mph /  3.2km/h 3mph /  4.8km/h 44% 0in /  0.0mm 902 W/m2
15:32 78.3 °F /  25.7 °C 54 °F /  12.2 °C 30in /  1016.6hPa WSW 2mph /  3.2km/h 6mph /  9.7km/h 43% 0in /  0.0mm 888 W/m2
15:37 78.3 °F /  25.7 °C 54 °F /  12.2 °C 30in /  1016.6hPa NE 2mph /  3.2km/h 4mph /  6.4km/h 43% 0in /  0.0mm 875 W/m2
15:42 78.4 °F /  25.8 °C 53.4 °F /  11.9 °C 30in /  1016.6hPa West 2mph /  3.2km/h 4mph /  6.4km/h 42% 0in /  0.0mm 854 W/m2
15:47 78.6 °F /  25.9 °C 54.9 °F /  12.7 °C 30in /  1016.6hPa SSE 4mph /  6.4km/h 6mph /  9.7km/h 44% 0in /  0.0mm 844 W/m2
15:52 79.2 °F /  26.2 °C 54.7 °F /  12.6 °C 30in /  1016.6hPa East 0.9mph /  1.4km/h 4mph /  6.4km/h 43% 0in /  0.0mm 837 W/m2
15:57 79 °F /  26.1 °C 54.5 °F /  12.5 °C 30in /  1016.6hPa ENE 2.9mph /  4.7km/h 5mph /  8km/h 43% 0in /  0.0mm 828 W/m2
16:02 78.8 °F /  26 °C 53.8 °F /  12.1 °C 30in /  1016.3hPa East 4mph /  6.4km/h 4mph /  6.4km/h 42% 0in /  0.0mm 817 W/m2
16:07 78.6 °F /  25.9 °C 55.6 °F /  13.1 °C 30in /  1016.3hPa SE 2.9mph /  4.7km/h 4mph /  6.4km/h 45% 0in /  0.0mm 805 W/m2
16:12 79 °F /  26.1 °C 54 °F /  12.2 °C 30in /  1016.3hPa East 0.9mph /  1.4km/h 6mph /  9.7km/h 42% 0in /  0.0mm 798 W/m2
16:17 79.2 °F /  26.2 °C 54.1 °F /  12.3 °C 30in /  1016.3hPa ENE 0.9mph /  1.4km/h 4mph /  6.4km/h 42% 0in /  0.0mm 789 W/m2
16:22 79.5 °F /  26.4 °C 52.3 °F /  11.3 °C 30in /  1016.3hPa SE 2.9mph /  4.7km/h 6mph /  9.7km/h 39% 0in /  0.0mm 779 W/m2
16:27 79.7 °F /  26.5 °C 52.5 °F /  11.4 °C 30in /  1016.3hPa Calm   3mph /  4.8km/h 39% 0in /  0.0mm 772 W/m2
16:32 79.9 °F /  26.6 °C 52 °F /  11.1 °C 30in /  1016.3hPa South 2mph /  3.2km/h 6mph /  9.7km/h 38% 0in /  0.0mm 751 W/m2
16:37 80.1 °F /  26.7 °C 54.3 °F /  12.4 °C 30in /  1016.3hPa NE 0.9mph /  1.4km/h 6mph /  9.7km/h 41% 0in /  0.0mm 740 W/m2
16:42 80.2 °F /  26.8 °C 54.3 °F /  12.4 °C 30in /  1016.3hPa East 2mph /  3.2km/h 9mph /  14.5km/h 41% 0in /  0.0mm 733 W/m2
16:47 80.2 °F /  26.8 °C 53.1 °F /  11.7 °C 30in /  1015.9hPa NNW 4.9mph /  7.9km/h 5mph /  8km/h 39% 0in /  0.0mm 719 W/m2
16:52 80.2 °F /  26.8 °C 53.8 °F /  12.1 °C 30in /  1015.9hPa NE 2.9mph /  4.7km/h 6mph /  9.7km/h 40% 0in /  0.0mm 707 W/m2
16:57 80.4 °F /  26.9 °C 54.5 °F /  12.5 °C 30in /  1015.9hPa ESE 2mph /  3.2km/h 7mph /  11.3km/h 41% 0in /  0.0mm 700 W/m2
17:02 80.4 °F /  26.9 °C 53.2 °F /  11.8 °C 30in /  1015.9hPa SE 4.9mph /  7.9km/h 8mph /  12.9km/h 39% 0in /  0.0mm 691 W/m2
17:07 80.4 °F /  26.9 °C 54 °F /  12.2 °C 30in /  1015.9hPa East 2.9mph /  4.7km/h 4mph /  6.4km/h 40% 0in /  0.0mm 684 W/m2
17:12 80.4 °F /  26.9 °C 54 °F /  12.2 °C 30in /  1015.6hPa NNE 2mph /  3.2km/h 9mph /  14.5km/h 40% 0in /  0.0mm 682 W/m2
17:17 80.2 °F /  26.8 °C 54.3 °F /  12.4 °C 30in /  1015.9hPa SE 4.9mph /  7.9km/h 5mph /  8km/h 41% 0in /  0.0mm 680 W/m2
17:22 80.4 °F /  26.9 °C 54 °F /  12.2 °C 30in /  1015.9hPa SE 2mph /  3.2km/h 3mph /  4.8km/h 40% 0in /  0.0mm 751 W/m2
17:27 80.8 °F /  27.1 °C 54.9 °F /  12.7 °C 30in /  1015.9hPa ESE 2.9mph /  4.7km/h 6mph /  9.7km/h 41% 0in /  0.0mm 828 W/m2
17:32 81 °F /  27.2 °C 53.6 °F /  12 °C 30in /  1015.6hPa ESE 2.9mph /  4.7km/h 7mph /  11.3km/h 39% 0in /  0.0mm 821 W/m2
17:37 81.3 °F /  27.4 °C 54 °F /  12.2 °C 30in /  1015.6hPa East 2mph /  3.2km/h 7mph /  11.3km/h 39% 0in /  0.0mm 359 W/m2
17:42 80.8 °F /  27.1 °C 52.9 °F /  11.6 °C 30in /  1015.6hPa ENE 0.9mph /  1.4km/h 4mph /  6.4km/h 38% 0in /  0.0mm 360 W/m2
17:47 80.4 °F /  26.9 °C 54.5 °F /  12.5 °C 30in /  1015.6hPa Calm   6mph /  9.7km/h 41% 0in /  0.0mm 355 W/m2
17:52 80.2 °F /  26.8 °C 54.3 °F /  12.4 °C 30in /  1015.6hPa ENE 0.9mph /  1.4km/h 3mph /  4.8km/h 41% 0in /  0.0mm 515 W/m2
17:57 80.2 °F /  26.8 °C 54.3 °F /  12.4 °C 30in /  1015.2hPa WSW 0.9mph /  1.4km/h 6mph /  9.7km/h 41% 0in /  0.0mm 339 W/m2
18:02 80.1 °F /  26.7 °C 54.3 °F /  12.4 °C 30in /  1015.2hPa ESE 4mph /  6.4km/h 4mph /  6.4km/h 41% 0in /  0.0mm 478 W/m2
18:07 80.4 °F /  26.9 °C 55.2 °F /  12.9 °C 30in /  1015.2hPa ENE 2mph /  3.2km/h 5mph /  8km/h 42% 0in /  0.0mm 478 W/m2
18:12 80.8 °F /  27.1 °C 54.9 °F /  12.7 °C 30in /  1015.2hPa NE 2.9mph /  4.7km/h 9mph /  14.5km/h 41% 0in /  0.0mm 715 W/m2
18:17 81.3 °F /  27.4 °C 55.4 °F /  13 °C 30in /  1015.2hPa ESE 2mph /  3.2km/h 7mph /  11.3km/h 41% 0in /  0.0mm 682 W/m2
18:22 81.5 °F /  27.5 °C 56.1 °F /  13.4 °C 30in /  1015.2hPa ESE 0.9mph /  1.4km/h 9mph /  14.5km/h 42% 0in /  0.0mm 566 W/m2
18:27 81.7 °F /  27.6 °C 55.8 °F /  13.2 °C 30in /  1015.2hPa ENE 2mph /  3.2km/h 7mph /  11.3km/h 41% 0in /  0.0mm 512 W/m2
18:32 81.3 °F /  27.4 °C 55.4 °F /  13 °C 30in /  1015.2hPa ENE 2mph /  3.2km/h 3mph /  4.8km/h 41% 0in /  0.0mm 455 W/m2
18:37 80.6 °F /  27 °C 54.7 °F /  12.6 °C 30in /  1015.2hPa Calm   7mph /  11.3km/h 41% 0in /  0.0mm 390 W/m2
18:42 80.4 °F /  26.9 °C 55.2 °F /  12.9 °C 30in /  1015.2hPa Calm   2mph /  3.2km/h 42% 0in /  0.0mm 360 W/m2
18:47 80.2 °F /  26.8 °C 54.3 °F /  12.4 °C 30in /  1015.2hPa East 2.9mph /  4.7km/h 4mph /  6.4km/h 41% 0in /  0.0mm 336 W/m2
18:52 79.9 °F /  26.6 °C 54.1 °F /  12.3 °C 30in /  1015.2hPa NE 4mph /  6.4km/h 5mph /  8km/h 41% 0in /  0.0mm 227 W/m2
18:57 79.5 °F /  26.4 °C 53.1 °F /  11.7 °C 30in /  1014.9hPa North 2mph /  3.2km/h 2mph /  3.2km/h 40% 0in /  0.0mm 76 W/m2
19:02 79.5 °F /  26.4 °C 54.5 °F /  12.5 °C 30in /  1014.9hPa East 0.9mph /  1.4km/h 6mph /  9.7km/h 42% 0in /  0.0mm 74 W/m2
19:07 79.9 °F /  26.6 °C 54.7 °F /  12.6 °C 30in /  1014.9hPa SE 2mph /  3.2km/h 4mph /  6.4km/h 42% 0in /  0.0mm 83 W/m2
19:12 80.1 °F /  26.7 °C 54.9 °F /  12.7 °C 30in /  1014.9hPa ESE 2mph /  3.2km/h 4mph /  6.4km/h 42% 0in /  0.0mm 77 W/m2
19:17 80.1 °F /  26.7 °C 54.3 °F /  12.4 °C 30in /  1014.9hPa ENE 0.9mph /  1.4km/h 3mph /  4.8km/h 41% 0in /  0.0mm 72 W/m2
19:23 79.9 °F /  26.6 °C 54.1 °F /  12.3 °C 30in /  1014.6hPa East 2mph /  3.2km/h 4mph /  6.4km/h 41% 0in /  0.0mm 69 W/m2
19:28 79.9 °F /  26.6 °C 54.7 °F /  12.6 °C 30in /  1014.6hPa ESE 0.9mph /  1.4km/h 3mph /  4.8km/h 42% 0in /  0.0mm 63 W/m2
19:33 79.9 °F /  26.6 °C 54.7 °F /  12.6 °C 30in /  1014.6hPa ESE 0.9mph /  1.4km/h 2mph /  3.2km/h 42% 0in /  0.0mm 62 W/m2
19:38 79.9 °F /  26.6 °C 54.7 °F /  12.6 °C 30in /  1014.6hPa SE 2.9mph /  4.7km/h 3mph /  4.8km/h 42% 0in /  0.0mm 60 W/m2
19:43 79.5 °F /  26.4 °C 54.5 °F /  12.5 °C 30in /  1014.6hPa ENE 2.9mph /  4.7km/h 4mph /  6.4km/h 42% 0in /  0.0mm 62 W/m2
19:48 79.3 °F /  26.3 °C 55.6 °F /  13.1 °C 30in /  1014.6hPa SE 0.9mph /  1.4km/h 2mph /  3.2km/h 44% 0in /  0.0mm 62 W/m2
19:53 79.3 °F /  26.3 °C 54.9 °F /  12.7 °C 30in /  1014.6hPa Calm   5mph /  8km/h 43% 0in /  0.0mm 62 W/m2
19:58 79.3 °F /  26.3 °C 54.9 °F /  12.7 °C 30in /  1014.6hPa NE 0.9mph /  1.4km/h 3mph /  4.8km/h 43% 0in /  0.0mm 98 W/m2
20:03 79.3 °F /  26.3 °C 54.3 °F /  12.4 °C 30in /  1014.6hPa ENE 0.9mph /  1.4km/h 1mph /  1.6km/h 42% 0in /  0.0mm 176 W/m2
20:08 79.3 °F /  26.3 °C 56.8 °F /  13.8 °C 30in /  1014.6hPa Calm     46% 0in /  0.0mm 67 W/m2
20:13 79.3 °F /  26.3 °C 55.6 °F /  13.1 °C 30in /  1014.6hPa South 2mph /  3.2km/h 6mph /  9.7km/h 44% 0in /  0.0mm 63 W/m2
20:18 79.2 °F /  26.2 °C 54.7 °F /  12.6 °C 30in /  1014.6hPa SSW 2mph /  3.2km/h 4mph /  6.4km/h 43% 0in /  0.0mm 56 W/m2
20:23 78.8 °F /  26 °C 55.6 °F /  13.1 °C 30in /  1014.6hPa ENE 2mph /  3.2km/h 2mph /  3.2km/h 45% 0in /  0.0mm 62 W/m2
20:28 78.4 °F /  25.8 °C 55.4 °F /  13 °C 30in /  1014.9hPa ESE 2mph /  3.2km/h 3mph /  4.8km/h 45% 0in /  0.0mm 46 W/m2
20:33 77.9 °F /  25.5 °C 56.7 °F /  13.7 °C 30in /  1014.9hPa SE 0.9mph /  1.4km/h 2mph /  3.2km/h 48% 0in /  0.0mm 46 W/m2
20:38 77.5 °F /  25.3 °C 56.3 °F /  13.5 °C 30in /  1014.6hPa Calm   2mph /  3.2km/h 48% 0in /  0.0mm 53 W/m2
20:43 77 °F /  25 °C 57 °F /  13.9 °C 30in /  1014.6hPa Calm     50% 0in /  0.0mm 63 W/m2
20:48 76.6 °F /  24.8 °C 57.2 °F /  14 °C 30in /  1014.6hPa Calm   2mph /  3.2km/h 51% 0in /  0.0mm 60 W/m2
20:53 76.3 °F /  24.6 °C 55.8 °F /  13.2 °C 30in /  1014.6hPa Calm   2mph /  3.2km/h 49% 0in /  0.0mm 79 W/m2
20:58 75.9 °F /  24.4 °C 57 °F /  13.9 °C 30in /  1014.6hPa Calm   1mph /  1.6km/h 52% 0in /  0.0mm 72 W/m2
21:03 75.9 °F /  24.4 °C 57 °F /  13.9 °C 30in /  1014.6hPa Calm   1mph /  1.6km/h 52% 0in /  0.0mm 62 W/m2
21:08 75.9 °F /  24.4 °C 55.9 °F /  13.3 °C 30in /  1014.6hPa Calm   1mph /  1.6km/h 50% 0in /  0.0mm 47 W/m2
21:13 75.7 °F /  24.3 °C 56.3 °F /  13.5 °C 30in /  1014.9hPa NW 0.9mph /  1.4km/h 1mph /  1.6km/h 51% 0in /  0.0mm 37 W/m2
21:18 75.6 °F /  24.2 °C 56.7 °F /  13.7 °C 30in /  1014.6hPa Calm   2mph /  3.2km/h 52% 0in /  0.0mm 19 W/m2
21:23 74.8 °F /  23.8 °C 55 °F /  12.8 °C 30in /  1014.9hPa WSW 2.9mph /  4.7km/h 3mph /  4.8km/h 50% 0in /  0.0mm 14 W/m2
21:28 74.1 °F /  23.4 °C 55.9 °F /  13.3 °C 30in /  1014.9hPa Calm   1mph /  1.6km/h 53% 0in /  0.0mm 12 W/m2
21:33 73.8 °F /  23.2 °C 56.1 °F /  13.4 °C 30in /  1014.9hPa WSW 0.9mph /  1.4km/h 2mph /  3.2km/h 54% 0in /  0.0mm 9 W/m2
21:38 73 °F /  22.8 °C 56.5 °F /  13.6 °C 30in /  1014.9hPa WSW 0.9mph /  1.4km/h 2mph /  3.2km/h 56% 0in /  0.0mm 7 W/m2
21:43 72.3 °F /  22.4 °C 56.7 °F /  13.7 °C 30in /  1014.9hPa Calm   1mph /  1.6km/h 58% 0in /  0.0mm 5 W/m2
21:48 71.8 °F /  22.1 °C 55.8 °F /  13.2 °C 30in /  1014.9hPa WSW 2mph /  3.2km/h 2mph /  3.2km/h 57% 0in /  0.0mm 0 W/m2
21:53 71.1 °F /  21.7 °C 55.9 °F /  13.3 °C 30in /  1014.9hPa WSW 0.9mph /  1.4km/h 2mph /  3.2km/h 59% 0in /  0.0mm 0 W/m2
21:58 70.5 °F /  21.4 °C 55.9 °F /  13.3 °C 30in /  1014.9hPa Calm   2mph /  3.2km/h 60% 0in /  0.0mm 0 W/m2
22:03 70 °F /  21.1 °C 55.9 °F /  13.3 °C 30in /  1014.9hPa Calm   2mph /  3.2km/h 61% 0in /  0.0mm 0 W/m2
22:08 69.4 °F /  20.8 °C 55.4 °F /  13 °C 30in /  1014.9hPa WSW 0.9mph /  1.4km/h 1mph /  1.6km/h 61% 0in /  0.0mm 0 W/m2
22:13 69.1 °F /  20.6 °C 55.9 °F /  13.3 °C 30in /  1014.9hPa WSW 0.9mph /  1.4km/h 2mph /  3.2km/h 63% 0in /  0.0mm 0 W/m2
22:18 68.5 °F /  20.3 °C 55.9 °F /  13.3 °C 30in /  1014.9hPa WSW 0.9mph /  1.4km/h 2mph /  3.2km/h 64% 0in /  0.0mm 0 W/m2
22:23 68.4 °F /  20.2 °C 56.1 °F /  13.4 °C 30in /  1014.9hPa Calm   1mph /  1.6km/h 65% 0in /  0.0mm 0 W/m2
22:28 67.8 °F /  19.9 °C 55.6 °F /  13.1 °C 30in /  1014.9hPa Calm   1mph /  1.6km/h 65% 0in /  0.0mm 0 W/m2
22:33 67.6 °F /  19.8 °C 55.9 °F /  13.3 °C 30in /  1014.9hPa Calm     66% 0in /  0.0mm 0 W/m2
22:38 67.3 °F /  19.6 °C 55 °F /  12.8 °C 30in /  1014.9hPa WSW 0.9mph /  1.4km/h 2mph /  3.2km/h 65% 0in /  0.0mm 0 W/m2
22:43 67.1 °F /  19.5 °C 55.8 °F /  13.2 °C 30in /  1014.9hPa Calm   1mph /  1.6km/h 67% 0in /  0.0mm 0 W/m2
22:48 66.7 °F /  19.3 °C 55.4 °F /  13 °C 30in /  1014.9hPa WSW 0.9mph /  1.4km/h 2mph /  3.2km/h 67% 0in /  0.0mm 0 W/m2
22:53 66.6 °F /  19.2 °C 55.6 °F /  13.1 °C 30in /  1014.9hPa Calm     68% 0in /  0.0mm 0 W/m2
22:58 66.4 °F /  19.1 °C 55.6 °F /  13.1 °C 30in /  1014.9hPa Calm     68% 0in /  0.0mm 0 W/m2
23:03 66.2 °F /  19 °C 55.8 °F /  13.2 °C 30in /  1014.9hPa Calm     69% 0in /  0.0mm 0 W/m2
23:08 65.8 °F /  18.8 °C 55.8 °F /  13.2 °C 30in /  1014.9hPa Calm     70% 0in /  0.0mm 0 W/m2
23:13 65.7 °F /  18.7 °C 55.6 °F /  13.1 °C 30in /  1014.9hPa Calm     70% 0in /  0.0mm 0 W/m2
23:18 65.5 °F /  18.6 °C 55.4 °F /  13 °C 30in /  1014.9hPa Calm     70% 0in /  0.0mm 0 W/m2
23:23 65.1 °F /  18.4 °C 55 °F /  12.8 °C 30in /  1014.9hPa Calm     70% 0in /  0.0mm 0 W/m2
23:28 65.1 °F /  18.4 °C 55 °F /  12.8 °C 30in /  1014.9hPa Calm     70% 0in /  0.0mm 0 W/m2
23:33 65.1 °F /  18.4 °C 55.4 °F /  13 °C 30in /  1014.9hPa Calm     71% 0in /  0.0mm 0 W/m2
23:38 65.1 °F /  18.4 °C 55.4 °F /  13 °C 30in /  1014.9hPa Calm     71% 0in /  0.0mm 0 W/m2
23:43 65.1 °F /  18.4 °C 55.4 °F /  13 °C 30in /  1014.9hPa Calm     71% 0in /  0.0mm 0 W/m2
23:48 65.1 °F /  18.4 °C 55.9 °F /  13.3 °C 30in /  1014.9hPa Calm     72% 0in /  0.0mm 0 W/m2
23:53 65.3 °F /  18.5 °C 56.1 °F /  13.4 °C 30in /  1014.9hPa WSW 0.9mph /  1.4km/h 1mph /  1.6km/h 72% 0in /  0.0mm 0 W/m2
23:58 65.5 °F /  18.6 °C 55.8 °F /  13.2 °C 30in /  1014.6hPa Calm     71% 0in /  0.0mm 0 W/m2
Juneau County Weather
Compliments of Weather Underground - 4 mb